createdAt,value
2022-10-23T00:00:31.874Z,100.00
2022-10-23T00:01:36.493Z,100.00
2022-10-23T00:02:38.569Z,100.00
2022-10-23T00:03:41.638Z,100.00
2022-10-23T00:04:43.612Z,100.00
2022-10-23T00:05:46.617Z,100.00
2022-10-23T00:06:49.132Z,100.00
2022-10-23T00:07:52.623Z,100.00
2022-10-23T00:08:55.781Z,100.00
2022-10-23T00:09:58.781Z,100.00
2022-10-23T00:11:06.676Z,100.00
2022-10-23T00:12:09.696Z,100.00
2022-10-23T00:13:11.690Z,100.00
2022-10-23T00:14:15.577Z,100.00
2022-10-23T00:15:19.068Z,100.00
2022-10-23T00:16:22.109Z,100.00
2022-10-23T00:17:24.106Z,100.00
2022-10-23T00:18:27.220Z,100.00
2022-10-23T00:19:29.242Z,100.00
2022-10-23T00:20:32.272Z,100.00
2022-10-23T00:21:34.345Z,100.00
2022-10-23T00:22:37.494Z,100.00
2022-10-23T00:23:40.658Z,100.00
2022-10-23T00:24:43.668Z,100.00
2022-10-23T00:25:45.724Z,100.00
2022-10-23T00:26:51.717Z,100.00
2022-10-23T00:27:53.728Z,100.00
2022-10-23T00:28:56.899Z,100.00
2022-10-23T00:29:59.142Z,100.00
2022-10-23T00:31:03.244Z,100.00
2022-10-23T00:32:05.293Z,100.00
2022-10-23T00:33:08.365Z,100.00
2022-10-23T00:34:11.064Z,100.00
2022-10-23T00:35:14.161Z,100.00
2022-10-23T00:36:18.889Z,100.00
2022-10-23T00:37:22.258Z,100.00
2022-10-23T00:38:24.337Z,100.00
2022-10-23T00:39:27.373Z,100.00
2022-10-23T00:40:29.469Z,100.00
2022-10-23T00:41:33.277Z,100.00
2022-10-23T00:42:36.894Z,100.00
2022-10-23T00:43:59.949Z,100.00
2022-10-23T00:45:22.110Z,100.00
2022-10-23T00:46:24.599Z,100.00
2022-10-23T00:47:27.972Z,100.00
2022-10-23T00:48:30.322Z,100.00
2022-10-23T00:49:34.599Z,100.00
2022-10-23T00:50:37.401Z,100.00
2022-10-23T00:51:42.954Z,100.00
2022-10-23T00:52:48.435Z,100.00
2022-10-23T00:54:06.525Z,100.00
2022-10-23T00:55:16.392Z,100.00
2022-10-23T00:56:19.593Z,100.00
2022-10-23T00:57:21.819Z,100.00
2022-10-23T00:58:26.341Z,100.00
2022-10-23T00:59:29.401Z,100.00
2022-10-23T01:00:43.046Z,100.00
2022-10-23T01:01:45.307Z,100.00
2022-10-23T01:02:48.381Z,100.00
2022-10-23T01:03:51.846Z,100.00
2022-10-23T01:04:54.934Z,100.00
2022-10-23T01:06:13.718Z,100.00
2022-10-23T01:07:23.458Z,100.00
2022-10-23T01:08:36.067Z,100.00
2022-10-23T01:09:41.796Z,100.00
2022-10-23T01:10:48.816Z,100.00
2022-10-23T01:11:55.866Z,100.00
2022-10-23T01:13:05.891Z,100.00
2022-10-23T01:14:17.807Z,100.00
2022-10-23T01:15:24.816Z,100.00
2022-10-23T01:16:34.025Z,100.00
2022-10-23T01:17:44.433Z,100.00
2022-10-23T01:18:51.652Z,100.00
2022-10-23T01:20:07.960Z,100.00
2022-10-23T01:21:14.335Z,100.00
2022-10-23T01:22:39.580Z,100.00
2022-10-23T01:24:19.544Z,100.00
2022-10-23T01:25:35.870Z,100.00
2022-10-23T01:26:51.501Z,100.00
2022-10-23T01:27:58.874Z,100.00
2022-10-23T01:29:06.100Z,100.00
2022-10-23T01:30:10.907Z,100.00
2022-10-23T01:31:23.299Z,100.00
2022-10-23T01:32:30.513Z,100.00
2022-10-23T01:33:42.170Z,100.00
2022-10-23T01:34:50.195Z,100.00
2022-10-23T01:35:59.015Z,100.00
2022-10-23T01:37:04.244Z,100.00
2022-10-23T01:38:13.877Z,100.00
2022-10-23T01:39:22.718Z,100.00
2022-10-23T01:40:32.030Z,100.00
2022-10-23T01:41:39.656Z,100.00
2022-10-23T01:42:47.649Z,100.00
2022-10-23T01:43:55.849Z,100.00
2022-10-23T01:45:04.073Z,100.00
2022-10-23T01:46:17.809Z,100.00
2022-10-23T01:47:28.033Z,100.00
2022-10-23T01:48:38.098Z,100.00
2022-10-23T01:49:43.671Z,100.00
2022-10-23T01:50:46.692Z,100.00
2022-10-23T01:51:55.125Z,100.00
2022-10-23T01:52:57.624Z,100.00
2022-10-23T01:54:02.221Z,100.00
2022-10-23T01:55:05.856Z,100.00
2022-10-23T01:56:13.081Z,100.00
2022-10-23T01:57:18.082Z,100.00
2022-10-23T01:58:22.903Z,100.00
2022-10-23T01:59:35.244Z,100.00
2022-10-23T02:00:42.388Z,100.00
2022-10-23T02:01:48.701Z,100.00
2022-10-23T02:02:54.157Z,100.00
2022-10-23T02:04:03.359Z,100.00
2022-10-23T02:05:11.252Z,100.00
2022-10-23T02:06:13.469Z,100.00
2022-10-23T02:07:16.562Z,100.00
2022-10-23T02:08:18.803Z,100.00
2022-10-23T02:09:21.983Z,100.00
2022-10-23T02:10:28.857Z,100.00
2022-10-23T02:11:37.261Z,100.00
2022-10-23T02:12:49.937Z,100.00
2022-10-23T02:14:00.660Z,100.00
2022-10-23T02:15:12.267Z,100.00
2022-10-23T02:16:24.249Z,100.00
2022-10-23T02:17:34.879Z,100.00
2022-10-23T02:18:47.786Z,100.00
2022-10-23T02:19:58.299Z,100.00
2022-10-23T02:21:08.721Z,100.00
2022-10-23T02:22:14.963Z,100.00
2022-10-23T02:23:22.715Z,100.00
2022-10-23T02:24:31.754Z,100.00
2022-10-23T02:25:38.588Z,100.00
2022-10-23T02:26:43.779Z,100.00
2022-10-23T02:27:51.714Z,100.00
2022-10-23T02:29:01.336Z,100.00
2022-10-23T02:30:09.534Z,100.00
2022-10-23T02:31:16.569Z,100.00
2022-10-23T02:32:22.139Z,100.00
2022-10-23T02:33:27.413Z,100.00
2022-10-23T02:34:30.605Z,100.00
2022-10-23T02:35:33.374Z,100.00
2022-10-23T02:36:45.802Z,100.00
2022-10-23T02:37:53.039Z,100.00
2022-10-23T02:38:56.058Z,100.00
2022-10-23T02:39:58.254Z,100.00
2022-10-23T02:41:11.265Z,100.00
2022-10-23T02:42:22.072Z,100.00
2022-10-23T02:43:32.534Z,100.00
2022-10-23T02:44:43.749Z,100.00
2022-10-23T02:45:55.256Z,100.00
2022-10-23T02:47:10.312Z,100.00
2022-10-23T02:48:18.580Z,100.00
2022-10-23T02:49:28.132Z,100.00
2022-10-23T02:50:39.478Z,100.00
2022-10-23T02:51:54.519Z,100.00
2022-10-23T02:53:06.407Z,100.00
2022-10-23T02:54:16.123Z,100.00
2022-10-23T02:55:28.129Z,100.00
2022-10-23T02:56:38.571Z,100.00
2022-10-23T02:57:48.039Z,100.00
2022-10-23T02:58:59.370Z,100.00
2022-10-23T03:00:07.407Z,100.00
2022-10-23T03:01:15.976Z,100.00
2022-10-23T03:02:23.192Z,100.00
2022-10-23T03:03:31.099Z,100.00
2022-10-23T03:04:33.717Z,100.00
2022-10-23T03:05:40.231Z,100.00
2022-10-23T03:06:42.972Z,100.00
2022-10-23T03:07:51.700Z,100.00
2022-10-23T03:09:00.575Z,100.00
2022-10-23T03:10:02.793Z,100.00
2022-10-23T03:11:07.137Z,100.00
2022-10-23T03:12:09.233Z,100.00
2022-10-23T03:13:13.148Z,100.00
2022-10-23T03:14:17.404Z,100.00
2022-10-23T03:15:21.276Z,100.00
2022-10-23T03:16:26.648Z,100.00
2022-10-23T03:17:31.059Z,100.00
2022-10-23T03:18:35.206Z,100.00
2022-10-23T03:19:39.232Z,100.00
2022-10-23T03:20:41.237Z,100.00
2022-10-23T03:21:44.224Z,100.00
2022-10-23T03:22:47.329Z,100.00
2022-10-23T03:23:49.324Z,100.00
2022-10-23T03:24:55.846Z,100.00
2022-10-23T03:25:57.915Z,100.00
2022-10-23T03:27:14.845Z,100.00
2022-10-23T03:28:16.929Z,100.00
2022-10-23T03:29:20.173Z,100.00
2022-10-23T03:30:22.217Z,100.00
2022-10-23T03:31:31.640Z,100.00
2022-10-23T03:32:35.321Z,100.00
2022-10-23T03:33:38.394Z,100.00
2022-10-23T03:34:43.709Z,100.00
2022-10-23T03:36:51.522Z,100.00
2022-10-23T03:37:55.538Z,100.00
2022-10-23T03:39:01.401Z,100.00
2022-10-23T03:40:04.516Z,100.00
2022-10-23T03:41:10.662Z,100.00
2022-10-23T03:42:12.719Z,100.00
2022-10-23T03:43:16.180Z,100.00
2022-10-23T03:44:18.636Z,100.00
2022-10-23T03:45:21.837Z,100.00
2022-10-23T03:46:24.427Z,100.00
2022-10-23T03:47:34.962Z,100.00
2022-10-23T03:48:38.335Z,100.00
2022-10-23T03:49:41.471Z,100.00
2022-10-23T03:50:43.469Z,100.00
2022-10-23T03:51:52.105Z,100.00
2022-10-23T03:52:56.220Z,100.00
2022-10-23T03:53:59.225Z,100.00
2022-10-23T03:55:01.315Z,100.00
2022-10-23T03:56:04.515Z,100.00
2022-10-23T03:57:08.528Z,100.00
2022-10-23T03:58:11.779Z,100.00
2022-10-23T03:59:13.838Z,100.00
2022-10-23T04:00:17.959Z,100.00
2022-10-23T04:01:21.998Z,100.00
2022-10-23T04:02:25.820Z,100.00
2022-10-23T04:03:29.316Z,100.00
2022-10-23T04:04:32.394Z,100.00
2022-10-23T04:05:35.992Z,100.00
2022-10-23T04:06:39.575Z,100.00
2022-10-23T04:07:41.785Z,100.00
2022-10-23T04:08:45.031Z,100.00
2022-10-23T04:09:52.487Z,100.00
2022-10-23T04:10:56.053Z,100.00
2022-10-23T04:12:21.936Z,100.00
2022-10-23T04:13:23.950Z,100.00
2022-10-23T04:14:27.885Z,100.00
2022-10-23T04:15:29.887Z,100.00
2022-10-23T04:16:32.966Z,100.00
2022-10-23T04:17:35.411Z,100.00
2022-10-23T04:18:41.623Z,100.00
2022-10-23T04:19:45.012Z,100.00
2022-10-23T04:20:49.050Z,100.00
2022-10-23T04:21:52.136Z,100.00
2022-10-23T04:22:54.248Z,100.00
2022-10-23T04:23:57.255Z,100.00
2022-10-23T04:25:00.311Z,100.00
2022-10-23T04:26:03.938Z,100.00
2022-10-23T04:27:08.364Z,100.00
2022-10-23T04:28:10.424Z,100.00
2022-10-23T04:29:16.127Z,100.00
2022-10-23T04:30:18.286Z,100.00
2022-10-23T04:31:22.276Z,100.00
2022-10-23T04:32:24.765Z,100.00
2022-10-23T04:33:28.040Z,100.00
2022-10-23T04:34:31.447Z,100.00
2022-10-23T04:35:34.449Z,100.00
2022-10-23T04:36:36.555Z,100.00
2022-10-23T04:37:46.776Z,100.00
2022-10-23T04:38:48.877Z,100.00
2022-10-23T04:39:51.893Z,100.00
2022-10-23T04:40:53.938Z,100.00
2022-10-23T04:41:58.428Z,100.00
2022-10-23T04:43:00.917Z,100.00
2022-10-23T04:44:08.083Z,100.00
2022-10-23T04:45:13.516Z,100.00
2022-10-23T04:46:18.112Z,100.00
2022-10-23T04:47:22.622Z,100.00
2022-10-23T04:48:34.278Z,100.00
2022-10-23T04:49:52.827Z,100.00
2022-10-23T04:51:15.811Z,100.00
2022-10-23T04:52:29.533Z,100.00
2022-10-23T04:53:58.760Z,100.00
2022-10-23T04:55:11.390Z,100.00
2022-10-23T04:56:21.413Z,100.00
2022-10-23T04:57:26.289Z,100.00
2022-10-23T04:58:35.680Z,100.00
2022-10-23T04:59:37.729Z,100.00
2022-10-23T05:00:41.128Z,100.00
2022-10-23T05:01:44.282Z,100.00
2022-10-23T05:02:47.401Z,100.00
2022-10-23T05:03:51.529Z,100.00
2022-10-23T05:04:56.054Z,100.00
2022-10-23T05:06:11.008Z,100.00
2022-10-23T05:07:15.787Z,100.00
2022-10-23T05:08:26.283Z,100.00
2022-10-23T05:09:46.542Z,100.00
2022-10-23T05:10:59.061Z,100.00
2022-10-23T05:12:01.278Z,100.00
2022-10-23T05:13:05.600Z,100.00
2022-10-23T05:14:07.712Z,100.00
2022-10-23T05:15:11.597Z,100.00
2022-10-23T05:16:25.846Z,100.00
2022-10-23T05:17:34.148Z,100.00
2022-10-23T05:18:40.865Z,100.00
2022-10-23T05:19:47.747Z,100.00
2022-10-23T05:20:54.525Z,100.00
2022-10-23T05:21:58.806Z,100.00
2022-10-23T05:23:08.824Z,100.00
2022-10-23T05:24:12.634Z,100.00
2022-10-23T05:25:14.721Z,100.00
2022-10-23T05:26:23.683Z,100.00
2022-10-23T05:27:28.356Z,100.00
2022-10-23T05:28:32.262Z,100.00
2022-10-23T05:29:34.376Z,100.00
2022-10-23T05:30:38.244Z,100.00
2022-10-23T05:31:40.523Z,100.00
2022-10-23T05:32:48.307Z,100.00
2022-10-23T05:33:50.868Z,100.00
2022-10-23T05:34:56.788Z,100.00
2022-10-23T05:36:04.166Z,100.00
2022-10-23T05:37:10.693Z,100.00
2022-10-23T05:38:14.998Z,100.00
2022-10-23T05:39:19.702Z,100.00
2022-10-23T05:40:22.694Z,100.00
2022-10-23T05:41:29.151Z,100.00
2022-10-23T05:42:35.212Z,100.00
2022-10-23T05:43:40.931Z,100.00
2022-10-23T05:45:07.867Z,100.00
2022-10-23T05:46:31.170Z,100.00
2022-10-23T05:47:56.534Z,100.00
2022-10-23T05:49:33.779Z,100.00
2022-10-23T05:50:54.013Z,100.00
2022-10-23T05:52:03.704Z,100.00
2022-10-23T05:53:21.258Z,100.00
2022-10-23T05:54:44.570Z,100.00
2022-10-23T05:56:10.840Z,100.00
2022-10-23T05:57:36.021Z,100.00
2022-10-23T05:58:42.987Z,100.00
2022-10-23T06:00:04.434Z,100.00
2022-10-23T06:01:26.913Z,100.00
2022-10-23T06:02:34.444Z,100.00
2022-10-23T06:03:47.169Z,100.00
2022-10-23T06:04:49.198Z,100.00
2022-10-23T06:05:53.189Z,100.00
2022-10-23T06:07:04.545Z,100.00
2022-10-23T06:08:07.894Z,100.00
2022-10-23T06:09:10.027Z,100.00
2022-10-23T06:10:16.498Z,100.00
2022-10-23T06:11:21.722Z,100.00
2022-10-23T06:12:39.156Z,100.00
2022-10-23T06:13:43.332Z,100.00
2022-10-23T06:14:46.572Z,100.00
2022-10-23T06:15:49.715Z,100.00
2022-10-23T06:16:58.296Z,100.00
2022-10-23T06:18:01.184Z,100.00
2022-10-23T06:19:05.322Z,100.00
2022-10-23T06:20:09.092Z,100.00
2022-10-23T06:21:18.498Z,100.00
2022-10-23T06:22:25.211Z,100.00
2022-10-23T06:23:37.615Z,100.00
2022-10-23T06:24:59.980Z,100.00
2022-10-23T06:26:03.757Z,100.00
2022-10-23T06:27:23.693Z,100.00
2022-10-23T06:28:26.443Z,100.00
2022-10-23T06:29:29.694Z,100.00
2022-10-23T06:30:32.104Z,100.00
2022-10-23T06:31:35.619Z,100.00
2022-10-23T06:32:38.716Z,100.00
2022-10-23T06:33:48.157Z,100.00
2022-10-23T06:34:51.198Z,100.00
2022-10-23T06:35:56.106Z,100.00
2022-10-23T06:36:59.346Z,100.00
2022-10-23T06:38:22.828Z,100.00
2022-10-23T06:39:32.062Z,100.00
2022-10-23T06:40:58.429Z,100.00
2022-10-23T06:42:10.206Z,100.00
2022-10-23T06:43:31.114Z,100.00
2022-10-23T06:44:52.097Z,100.00
2022-10-23T06:46:12.060Z,100.00
2022-10-23T06:47:33.508Z,100.00
2022-10-23T06:48:59.595Z,100.00
2022-10-23T06:50:07.906Z,100.00
2022-10-23T06:51:14.461Z,100.00
2022-10-23T06:52:41.664Z,100.00
2022-10-23T06:53:43.968Z,100.00
2022-10-23T06:55:10.537Z,100.00
2022-10-23T06:56:13.888Z,100.00
2022-10-23T06:57:16.897Z,100.00
2022-10-23T06:58:21.504Z,100.00
2022-10-23T06:59:44.812Z,100.00
2022-10-23T07:00:46.913Z,100.00
2022-10-23T07:01:50.261Z,100.00
2022-10-23T07:02:53.594Z,100.00
2022-10-23T07:03:56.675Z,100.00
2022-10-23T07:05:01.361Z,100.00
2022-10-23T07:06:06.176Z,100.00
2022-10-23T07:07:09.464Z,100.00
2022-10-23T07:08:19.581Z,100.00
2022-10-23T07:09:27.510Z,100.00
2022-10-23T07:10:29.681Z,100.00
2022-10-23T07:11:34.404Z,100.00
2022-10-23T07:12:37.178Z,100.00
2022-10-23T07:14:03.275Z,100.00
2022-10-23T07:15:07.369Z,100.00
2022-10-23T07:16:12.021Z,100.00
2022-10-23T07:17:15.407Z,100.00
2022-10-23T07:18:19.521Z,100.00
2022-10-23T07:19:47.952Z,100.00
2022-10-23T07:20:58.111Z,100.00
2022-10-23T07:22:01.559Z,100.00
2022-10-23T07:23:16.649Z,100.00
2022-10-23T07:24:21.091Z,100.00
2022-10-23T07:25:26.272Z,100.00
2022-10-23T07:26:30.101Z,100.00
2022-10-23T07:27:36.605Z,100.00
2022-10-23T07:28:42.739Z,100.00
2022-10-23T07:29:45.047Z,100.00
2022-10-23T07:30:57.521Z,100.00
2022-10-23T07:32:00.897Z,100.00
2022-10-23T07:33:06.676Z,100.00
2022-10-23T07:34:14.684Z,100.00
2022-10-23T07:35:18.303Z,100.00
2022-10-23T07:36:30.546Z,100.00
2022-10-23T07:37:32.731Z,100.00
2022-10-23T07:38:38.269Z,100.00
2022-10-23T07:39:40.413Z,100.00
2022-10-23T07:40:45.859Z,100.00
2022-10-23T07:41:51.243Z,100.00
2022-10-23T07:42:55.006Z,100.00
2022-10-23T07:43:57.329Z,100.00
2022-10-23T07:45:00.788Z,100.00
2022-10-23T07:46:03.738Z,100.00
2022-10-23T07:47:11.436Z,100.00
2022-10-23T07:48:17.045Z,100.00
2022-10-23T07:49:35.282Z,100.00
2022-10-23T07:50:38.238Z,100.00
2022-10-23T07:51:41.393Z,100.00
2022-10-23T07:52:44.139Z,100.00
2022-10-23T07:53:49.521Z,100.00
2022-10-23T07:55:04.364Z,100.00
2022-10-23T07:56:17.134Z,100.00
2022-10-23T07:57:45.502Z,100.00
2022-10-23T07:59:00.272Z,100.00
2022-10-23T08:00:02.372Z,100.00
2022-10-23T08:01:16.358Z,100.00
2022-10-23T08:02:19.235Z,100.00
2022-10-23T08:03:22.954Z,100.00
2022-10-23T08:04:26.235Z,100.00
2022-10-23T08:05:35.108Z,100.00
2022-10-23T08:06:39.044Z,100.00
2022-10-23T08:07:42.134Z,100.00
2022-10-23T08:09:48.669Z,100.00
2022-10-23T08:10:53.779Z,100.00
2022-10-23T08:12:04.079Z,100.00
2022-10-23T08:13:07.133Z,100.00
2022-10-23T08:14:27.892Z,100.00
2022-10-23T08:15:30.906Z,100.00
2022-10-23T08:16:41.032Z,100.00
2022-10-23T08:17:52.346Z,100.00
2022-10-23T08:19:00.216Z,100.00
2022-10-23T08:20:04.366Z,100.00
2022-10-23T08:21:14.248Z,100.00
2022-10-23T08:22:16.441Z,100.00
2022-10-23T08:23:21.109Z,100.00
2022-10-23T08:24:23.879Z,100.00
2022-10-23T08:25:27.558Z,100.00
2022-10-23T08:26:30.682Z,100.00
2022-10-23T08:27:35.090Z,100.00
2022-10-23T08:28:37.851Z,100.00
2022-10-23T08:29:41.502Z,100.00
2022-10-23T08:30:43.899Z,100.00
2022-10-23T08:31:47.960Z,100.00
2022-10-23T08:33:20.586Z,100.00
2022-10-23T08:34:22.906Z,100.00
2022-10-23T08:35:28.250Z,100.00
2022-10-23T08:36:30.319Z,100.00
2022-10-23T08:37:33.494Z,100.00
2022-10-23T08:38:36.179Z,100.00
2022-10-23T08:39:41.559Z,100.00
2022-10-23T08:40:51.515Z,100.00
2022-10-23T08:41:57.405Z,100.00
2022-10-23T08:43:06.396Z,100.00
2022-10-23T08:44:19.625Z,100.00
2022-10-23T08:45:30.602Z,100.00
2022-10-23T08:47:02.505Z,100.00
2022-10-23T08:48:29.407Z,100.00
2022-10-23T08:49:54.447Z,100.00
2022-10-23T08:51:01.179Z,100.00
2022-10-23T08:52:14.350Z,100.00
2022-10-23T08:53:27.958Z,100.00
2022-10-23T08:54:39.606Z,100.00
2022-10-23T08:55:46.658Z,100.00
2022-10-23T08:56:51.764Z,100.00
2022-10-23T08:58:00.186Z,100.00
2022-10-23T08:59:15.056Z,100.00
2022-10-23T09:00:19.549Z,100.00
2022-10-23T09:01:36.161Z,100.00
2022-10-23T09:02:43.604Z,100.00
2022-10-23T09:03:45.881Z,100.00
2022-10-23T09:04:51.389Z,100.00
2022-10-23T09:06:03.493Z,100.00
2022-10-23T09:07:13.225Z,100.00
2022-10-23T09:08:27.301Z,100.00
2022-10-23T09:09:56.289Z,100.00
2022-10-23T09:11:05.429Z,100.00
2022-10-23T09:12:11.865Z,100.00
2022-10-23T09:13:31.511Z,100.00
2022-10-23T09:14:56.600Z,100.00
2022-10-23T09:16:07.558Z,100.00
2022-10-23T09:17:24.098Z,100.00
2022-10-23T09:18:26.168Z,100.00
2022-10-23T09:19:31.366Z,100.00
2022-10-23T09:20:35.521Z,100.00
2022-10-23T09:21:39.646Z,100.00
2022-10-23T09:22:43.354Z,100.00
2022-10-23T09:23:46.788Z,100.00
2022-10-23T09:24:53.608Z,100.00
2022-10-23T09:25:57.702Z,100.00
2022-10-23T09:27:00.682Z,100.00
2022-10-23T09:28:05.720Z,100.00
2022-10-23T09:29:19.251Z,100.00
2022-10-23T09:30:33.050Z,100.00
2022-10-23T09:31:35.104Z,100.00
2022-10-23T09:32:39.384Z,100.00
2022-10-23T09:33:42.095Z,100.00
2022-10-23T09:34:53.669Z,100.00
2022-10-23T09:35:58.901Z,100.00
2022-10-23T09:37:03.350Z,100.00
2022-10-23T09:38:05.425Z,100.00
2022-10-23T09:39:24.272Z,100.00
2022-10-23T09:40:33.362Z,100.00
2022-10-23T09:41:38.717Z,100.00
2022-10-23T09:42:54.607Z,100.00
2022-10-23T09:44:15.186Z,100.00
2022-10-23T09:45:22.990Z,100.00
2022-10-23T09:46:38.598Z,100.00
2022-10-23T09:47:41.890Z,100.00
2022-10-23T09:48:45.230Z,100.00
2022-10-23T09:49:48.598Z,100.00
2022-10-23T09:50:54.438Z,100.00
2022-10-23T09:52:02.154Z,100.00
2022-10-23T09:53:06.261Z,100.00
2022-10-23T09:54:16.921Z,100.00
2022-10-23T09:55:21.768Z,100.00
2022-10-23T09:56:30.931Z,100.00
2022-10-23T09:57:38.259Z,99.87
2022-10-23T09:58:53.512Z,99.73
2022-10-23T09:59:59.119Z,99.70
2022-10-23T10:01:02.848Z,99.56
2022-10-23T10:02:29.250Z,99.32
2022-10-23T10:04:05.197Z,99.35
2022-10-23T10:05:22.817Z,99.53
2022-10-23T10:06:27.869Z,99.12
2022-10-23T10:07:33.337Z,99.03
2022-10-23T10:08:45.340Z,99.00
2022-10-23T10:09:47.798Z,98.78
2022-10-23T10:10:54.808Z,98.27
2022-10-23T10:12:05.939Z,98.35
2022-10-23T10:13:24.224Z,98.15
2022-10-23T10:14:47.949Z,98.01
2022-10-23T10:15:55.354Z,97.63
2022-10-23T10:17:02.554Z,97.76
2022-10-23T10:18:17.712Z,97.40
2022-10-23T10:19:33.360Z,97.27
2022-10-23T10:20:46.088Z,97.13
2022-10-23T10:21:58.015Z,96.91
2022-10-23T10:23:07.034Z,96.83
2022-10-23T10:24:18.957Z,96.50
2022-10-23T10:25:26.463Z,96.07
2022-10-23T10:26:41.766Z,95.97
2022-10-23T10:27:52.997Z,95.77
2022-10-23T10:29:08.365Z,95.64
2022-10-23T10:30:15.937Z,95.51
2022-10-23T10:31:27.294Z,95.35
2022-10-23T10:32:39.034Z,95.45
2022-10-23T10:33:53.528Z,95.12
2022-10-23T10:35:04.092Z,95.06
2022-10-23T10:36:15.395Z,95.21
2022-10-23T10:37:26.659Z,95.12
2022-10-23T10:38:42.596Z,95.06
2022-10-23T10:39:52.096Z,95.13
2022-10-23T10:41:17.826Z,95.27
2022-10-23T10:42:46.541Z,95.18
2022-10-23T10:44:00.760Z,95.33
2022-10-23T10:45:20.294Z,95.23
2022-10-23T10:46:29.184Z,95.24
2022-10-23T10:47:41.298Z,95.49
2022-10-23T10:48:52.987Z,95.13
2022-10-23T10:50:17.191Z,95.20
2022-10-23T10:51:34.456Z,95.17
2022-10-23T10:52:49.239Z,95.05
2022-10-23T10:54:31.675Z,95.09
2022-10-23T10:55:37.438Z,95.11
2022-10-23T10:56:45.504Z,95.15
2022-10-23T10:57:50.464Z,95.15
2022-10-23T10:58:57.712Z,94.97
2022-10-23T11:00:04.205Z,94.85
2022-10-23T11:01:27.207Z,94.50
2022-10-23T11:02:34.214Z,94.38
2022-10-23T11:03:42.455Z,94.50
2022-10-23T11:04:52.069Z,93.92
2022-10-23T11:07:06.113Z,93.72
2022-10-23T11:08:15.891Z,93.72
2022-10-23T11:09:21.756Z,93.59
2022-10-23T11:10:24.848Z,93.49
2022-10-23T11:11:33.072Z,93.56
2022-10-23T11:12:36.284Z,93.34
2022-10-23T11:13:40.785Z,93.05
2022-10-23T11:14:44.377Z,93.24
2022-10-23T11:15:46.913Z,93.19
2022-10-23T11:16:52.611Z,93.34
2022-10-23T11:17:58.580Z,92.97
2022-10-23T11:19:11.442Z,93.16
2022-10-23T11:20:32.738Z,93.17
2022-10-23T11:21:40.832Z,92.95
2022-10-23T11:22:50.274Z,93.00
2022-10-23T11:24:44.105Z,93.23
2022-10-23T11:26:03.256Z,93.07
2022-10-23T11:27:38.701Z,93.00
2022-10-23T11:28:58.152Z,93.04
2022-10-23T11:30:25.002Z,93.23
2022-10-23T11:31:33.809Z,93.11
2022-10-23T11:32:53.500Z,93.13
2022-10-23T11:34:25.817Z,93.23
2022-10-23T11:35:44.981Z,93.26
2022-10-23T11:36:53.794Z,93.08
2022-10-23T11:38:01.042Z,93.03
2022-10-23T11:39:16.787Z,92.67
2022-10-23T11:40:24.034Z,92.47
2022-10-23T11:41:29.633Z,92.64
2022-10-23T11:42:45.705Z,92.40
2022-10-23T11:43:51.244Z,92.35
2022-10-23T11:44:53.320Z,92.28
2022-10-23T11:45:56.760Z,91.95
2022-10-23T11:47:03.865Z,91.98
2022-10-23T11:48:20.767Z,91.46
2022-10-23T11:49:24.171Z,91.13
2022-10-23T11:50:31.040Z,90.93
2022-10-23T11:51:37.418Z,90.71
2022-10-23T11:53:12.633Z,90.54
2022-10-23T11:54:24.742Z,90.44
2022-10-23T11:55:30.291Z,90.25
2022-10-23T11:56:34.205Z,89.90
2022-10-23T11:57:36.553Z,89.73
2022-10-23T11:58:44.647Z,89.64
2022-10-23T11:59:56.194Z,89.56
2022-10-23T12:01:02.562Z,89.62
2022-10-23T12:02:24.102Z,89.57
2022-10-23T12:03:32.670Z,89.75
2022-10-23T12:04:42.293Z,89.48
2022-10-23T12:05:45.683Z,89.53
2022-10-23T12:06:53.671Z,89.17
2022-10-23T12:07:58.935Z,89.12
2022-10-23T12:09:06.977Z,88.94
2022-10-23T12:10:23.736Z,88.51
2022-10-23T12:11:44.512Z,87.94
2022-10-23T12:12:56.988Z,88.27
2022-10-23T12:13:59.106Z,88.19
2022-10-23T12:15:18.942Z,88.20
2022-10-23T12:16:22.240Z,88.05
2022-10-23T12:17:36.177Z,88.12
2022-10-23T12:18:51.264Z,88.14
2022-10-23T12:20:09.179Z,88.15
2022-10-23T12:21:19.170Z,87.83
2022-10-23T12:22:28.254Z,87.71
2022-10-23T12:23:48.381Z,87.62
2022-10-23T12:25:02.048Z,87.49
2022-10-23T12:26:26.006Z,87.29
2022-10-23T12:27:41.224Z,87.09
2022-10-23T12:28:55.432Z,87.20
2022-10-23T12:30:20.430Z,87.28
2022-10-23T12:31:38.840Z,87.02
2022-10-23T12:33:10.166Z,87.00
2022-10-23T12:34:27.499Z,86.91
2022-10-23T12:35:51.838Z,87.34
2022-10-23T12:37:15.040Z,87.32
2022-10-23T12:38:21.072Z,87.30
2022-10-23T12:39:29.053Z,87.28
2022-10-23T12:40:31.195Z,87.38
2022-10-23T12:41:35.901Z,87.64
2022-10-23T12:42:38.606Z,87.41
2022-10-23T12:43:45.103Z,87.74
2022-10-23T12:44:58.276Z,88.21
2022-10-23T12:46:06.677Z,88.32
2022-10-23T12:47:18.669Z,88.65
2022-10-23T12:48:22.983Z,88.75
2022-10-23T12:49:26.973Z,89.03
2022-10-23T12:50:32.441Z,89.14
2022-10-23T12:51:35.829Z,89.36
2022-10-23T12:52:42.378Z,89.61
2022-10-23T12:53:49.670Z,89.62
2022-10-23T12:54:52.820Z,89.61
2022-10-23T12:55:58.006Z,89.82
2022-10-23T12:57:01.194Z,89.94
2022-10-23T12:58:03.362Z,89.90
2022-10-23T12:59:15.153Z,89.87
2022-10-23T13:00:21.874Z,89.93
2022-10-23T13:01:28.356Z,89.98
2022-10-23T13:02:33.527Z,89.95
2022-10-23T13:03:37.115Z,90.17
2022-10-23T13:04:41.829Z,89.91
2022-10-23T13:05:44.582Z,89.79
2022-10-23T13:06:50.065Z,89.94
2022-10-23T13:07:53.419Z,90.19
2022-10-23T13:09:06.520Z,90.22
2022-10-23T13:10:18.427Z,90.40
2022-10-23T13:11:28.727Z,90.59
2022-10-23T13:12:36.697Z,90.62
2022-10-23T13:13:40.378Z,90.78
2022-10-23T13:14:56.072Z,90.99
2022-10-23T13:15:59.172Z,91.07
2022-10-23T13:17:04.683Z,91.43
2022-10-23T13:18:10.211Z,91.49
2022-10-23T13:19:23.655Z,91.47
2022-10-23T13:20:28.482Z,91.70
2022-10-23T13:21:32.818Z,91.54
2022-10-23T13:22:36.373Z,91.61
2022-10-23T13:23:43.522Z,91.40
2022-10-23T13:24:47.773Z,91.72
2022-10-23T13:25:55.749Z,91.76
2022-10-23T13:26:59.948Z,91.79
2022-10-23T13:28:12.242Z,91.91
2022-10-23T13:29:21.749Z,92.09
2022-10-23T13:30:32.422Z,91.88
2022-10-23T13:31:35.419Z,91.92
2022-10-23T13:32:37.466Z,92.08
2022-10-23T13:33:42.143Z,92.07
2022-10-23T13:35:03.531Z,92.39
2022-10-23T13:36:22.703Z,91.95
2022-10-23T13:37:27.358Z,92.51
2022-10-23T13:38:31.481Z,92.63
2022-10-23T13:39:35.436Z,92.83
2022-10-23T13:40:38.891Z,92.81
2022-10-23T13:41:43.760Z,93.03
2022-10-23T13:42:49.601Z,93.00
2022-10-23T13:43:51.947Z,93.06
2022-10-23T13:44:55.091Z,93.47
2022-10-23T13:45:58.189Z,93.47
2022-10-23T13:47:01.318Z,93.44
2022-10-23T13:48:03.691Z,93.50
2022-10-23T13:49:06.959Z,93.69
2022-10-23T13:50:11.267Z,93.92
2022-10-23T13:51:15.618Z,93.71
2022-10-23T13:52:23.388Z,93.71
2022-10-23T13:53:25.428Z,93.63
2022-10-23T13:54:30.277Z,93.68
2022-10-23T13:55:33.554Z,93.65
2022-10-23T13:56:37.960Z,93.78
2022-10-23T13:57:40.048Z,93.67
2022-10-23T13:58:43.380Z,94.09
2022-10-23T13:59:45.443Z,93.93
2022-10-23T14:00:50.753Z,93.79
2022-10-23T14:01:53.000Z,93.85
2022-10-23T14:02:56.074Z,93.81
2022-10-23T14:03:59.449Z,93.62
2022-10-23T14:05:02.509Z,93.84
2022-10-23T14:06:10.307Z,93.83
2022-10-23T14:07:14.967Z,93.93
2022-10-23T14:08:17.106Z,93.83
2022-10-23T14:09:20.136Z,93.79
2022-10-23T14:10:25.642Z,93.74
2022-10-23T14:11:31.459Z,93.63
2022-10-23T14:12:41.978Z,93.75
2022-10-23T14:13:44.599Z,93.83
2022-10-23T14:14:52.355Z,93.70
2022-10-23T14:15:54.844Z,93.89
2022-10-23T14:16:57.857Z,94.11
2022-10-23T14:18:02.410Z,94.07
2022-10-23T14:19:08.517Z,94.10
2022-10-23T14:20:11.636Z,94.15
2022-10-23T14:21:16.620Z,94.16
2022-10-23T14:22:20.118Z,94.23
2022-10-23T14:23:22.128Z,94.18